Terminal Aerodrome Forecast
Issued by NWS

Home | Current Version | Previous Version | Text Only | Print | Product List | Glossary On
Versions: 1 2 3 4 5 6 7 8 9 10 11 12 13 14 15 16 17 18 19 20 21 22 23 24 25 26 27 28
000
FTUS45 KGJT 012322
TAFEGE
TAF
KEGE 012322Z 0200/0224 28007KT P6SM VCTS SCT070CB BKN120
      TEMPO 0200/0202 VRB10G20KT -SHRA BKN070
     FM020200 06005KT P6SM VCSH SCT070 BKN110
     FM020600 00000KT P6SM SCT150
     FM022100 24007KT P6SM VCTS FEW110CB SCT150
      AMD LTD TO CLD VIS AND WIND 0201/0213=

USA.gov is the U.S. government's official web portal to all federal, state and local government web resources and services.